sensor_id;sensor_type;location;lat;lon;timestamp;P1;durP1;ratioP1;P2;durP2;ratioP2
7729;SDS011;3908;52.310;7.230;2023-07-31T00:02:36;63.17;;;60.37;;
7729;SDS011;3908;52.310;7.230;2023-07-31T00:05:23;71.37;;;68.17;;
7729;SDS011;3908;52.310;7.230;2023-07-31T00:08:10;64.83;;;61.93;;
7729;SDS011;3908;52.310;7.230;2023-07-31T00:10:57;57.93;;;55.33;;
7729;SDS011;3908;52.310;7.230;2023-07-31T00:13:43;56.27;;;53.67;;
7729;SDS011;3908;52.310;7.230;2023-07-31T00:16:31;50.63;;;48.13;;
7729;SDS011;3908;52.310;7.230;2023-07-31T00:19:18;56.23;;;53.77;;
7729;SDS011;3908;52.310;7.230;2023-07-31T00:22:05;59.00;;;56.33;;
7729;SDS011;3908;52.310;7.230;2023-07-31T00:24:52;53.60;;;51.23;;
7729;SDS011;3908;52.310;7.230;2023-07-31T00:27:38;63.93;;;61.10;;
7729;SDS011;3908;52.310;7.230;2023-07-31T00:30:29;60.63;;;57.90;;
7729;SDS011;3908;52.310;7.230;2023-07-31T00:33:17;52.50;;;50.00;;
7729;SDS011;3908;52.310;7.230;2023-07-31T00:36:04;56.67;;;53.77;;
7729;SDS011;3908;52.310;7.230;2023-07-31T00:38:51;53.00;;;50.47;;
7729;SDS011;3908;52.310;7.230;2023-07-31T00:41:38;52.20;;;49.70;;
7729;SDS011;3908;52.310;7.230;2023-07-31T00:44:24;60.30;;;57.60;;
7729;SDS011;3908;52.310;7.230;2023-07-31T00:47:11;62.60;;;59.77;;
7729;SDS011;3908;52.310;7.230;2023-07-31T00:49:59;70.57;;;67.37;;
7729;SDS011;3908;52.310;7.230;2023-07-31T00:52:46;80.80;;;77.20;;
7729;SDS011;3908;52.310;7.230;2023-07-31T00:55:33;85.20;;;81.40;;
7729;SDS011;3908;52.310;7.230;2023-07-31T00:58:20;82.17;;;78.47;;
7729;SDS011;3908;52.310;7.230;2023-07-31T01:01:06;66.07;;;63.03;;
7729;SDS011;3908;52.310;7.230;2023-07-31T01:03:53;49.90;;;47.50;;
7729;SDS011;3908;52.310;7.230;2023-07-31T01:06:44;42.93;;;38.43;;
7729;SDS011;3908;52.310;7.230;2023-07-31T01:09:33;27.93;;;26.57;;
7729;SDS011;3908;52.310;7.230;2023-07-31T01:12:23;31.63;;;29.97;;
7729;SDS011;3908;52.310;7.230;2023-07-31T01:15:10;37.50;;;35.50;;
7729;SDS011;3908;52.310;7.230;2023-07-31T01:17:57;45.60;;;43.43;;
7729;SDS011;3908;52.310;7.230;2023-07-31T01:20:43;49.40;;;47.03;;
7729;SDS011;3908;52.310;7.230;2023-07-31T01:26:36;46.77;;;44.60;;
7729;SDS011;3908;52.310;7.230;2023-07-31T01:29:26;46.80;;;44.70;;
7729;SDS011;3908;52.310;7.230;2023-07-31T01:32:16;47.00;;;44.60;;
7729;SDS011;3908;52.310;7.230;2023-07-31T01:35:04;58.97;;;55.33;;
7729;SDS011;3908;52.310;7.230;2023-07-31T01:37:52;50.10;;;47.73;;
7729;SDS011;3908;52.310;7.230;2023-07-31T01:40:40;44.37;;;42.23;;
7729;SDS011;3908;52.310;7.230;2023-07-31T01:43:29;35.67;;;34.00;;
7729;SDS011;3908;52.310;7.230;2023-07-31T01:46:16;33.67;;;32.07;;
7729;SDS011;3908;52.310;7.230;2023-07-31T01:49:03;35.70;;;33.90;;
7729;SDS011;3908;52.310;7.230;2023-07-31T01:51:51;37.13;;;35.23;;
7729;SDS011;3908;52.310;7.230;2023-07-31T01:54:38;42.60;;;40.67;;
7729;SDS011;3908;52.310;7.230;2023-07-31T01:57:24;36.73;;;35.00;;
7729;SDS011;3908;52.310;7.230;2023-07-31T02:00:13;25.00;;;23.80;;
7729;SDS011;3908;52.310;7.230;2023-07-31T02:02:59;22.47;;;21.37;;
7729;SDS011;3908;52.310;7.230;2023-07-31T02:05:47;12.67;;;12.03;;
7729;SDS011;3908;52.310;7.230;2023-07-31T02:08:34;20.00;;;19.03;;
7729;SDS011;3908;52.310;7.230;2023-07-31T02:11:21;28.87;;;27.17;;
7729;SDS011;3908;52.310;7.230;2023-07-31T02:14:07;33.17;;;31.60;;
7729;SDS011;3908;52.310;7.230;2023-07-31T02:16:56;49.10;;;46.87;;
7729;SDS011;3908;52.310;7.230;2023-07-31T02:19:42;53.93;;;51.47;;
7729;SDS011;3908;52.310;7.230;2023-07-31T02:22:29;57.00;;;54.53;;
7729;SDS011;3908;52.310;7.230;2023-07-31T02:25:16;50.60;;;48.40;;
7729;SDS011;3908;52.310;7.230;2023-07-31T02:28:03;39.50;;;37.77;;
7729;SDS011;3908;52.310;7.230;2023-07-31T02:30:50;38.07;;;36.40;;
7729;SDS011;3908;52.310;7.230;2023-07-31T02:33:38;32.33;;;30.80;;
7729;SDS011;3908;52.310;7.230;2023-07-31T02:36:24;41.63;;;39.73;;
7729;SDS011;3908;52.310;7.230;2023-07-31T02:39:11;36.60;;;34.87;;
7729;SDS011;3908;52.310;7.230;2023-07-31T02:41:58;42.03;;;40.23;;
7729;SDS011;3908;52.310;7.230;2023-07-31T02:44:47;28.20;;;26.83;;
7729;SDS011;3908;52.310;7.230;2023-07-31T02:47:34;20.73;;;19.77;;
7729;SDS011;3908;52.310;7.230;2023-07-31T02:50:22;14.70;;;13.67;;
7729;SDS011;3908;52.310;7.230;2023-07-31T02:53:09;12.07;;;11.33;;
7729;SDS011;3908;52.310;7.230;2023-07-31T02:55:56;11.40;;;10.53;;
7729;SDS011;3908;52.310;7.230;2023-07-31T02:58:42;12.57;;;12.00;;
7729;SDS011;3908;52.310;7.230;2023-07-31T03:01:29;11.43;;;10.87;;
7729;SDS011;3908;52.310;7.230;2023-07-31T03:04:16;13.83;;;13.23;;
7729;SDS011;3908;52.310;7.230;2023-07-31T03:07:04;14.37;;;13.67;;
7729;SDS011;3908;52.310;7.230;2023-07-31T03:09:51;13.87;;;13.27;;
7729;SDS011;3908;52.310;7.230;2023-07-31T03:12:38;15.77;;;13.47;;
7729;SDS011;3908;52.310;7.230;2023-07-31T03:15:25;16.80;;;15.80;;
7729;SDS011;3908;52.310;7.230;2023-07-31T03:18:11;17.37;;;16.37;;
7729;SDS011;3908;52.310;7.230;2023-07-31T03:20:58;17.70;;;16.77;;
7729;SDS011;3908;52.310;7.230;2023-07-31T03:23:46;33.57;;;30.90;;
7729;SDS011;3908;52.310;7.230;2023-07-31T03:26:33;36.53;;;33.33;;
7729;SDS011;3908;52.310;7.230;2023-07-31T03:29:21;32.77;;;30.00;;
7729;SDS011;3908;52.310;7.230;2023-07-31T03:32:08;23.60;;;19.33;;
7729;SDS011;3908;52.310;7.230;2023-07-31T03:34:55;15.77;;;14.33;;
7729;SDS011;3908;52.310;7.230;2023-07-31T03:37:41;14.30;;;13.00;;
7729;SDS011;3908;52.310;7.230;2023-07-31T03:40:30;12.63;;;11.43;;
7729;SDS011;3908;52.310;7.230;2023-07-31T03:43:16;14.23;;;12.93;;
7729;SDS011;3908;52.310;7.230;2023-07-31T03:46:03;15.87;;;14.53;;
7729;SDS011;3908;52.310;7.230;2023-07-31T03:48:50;20.67;;;18.97;;
7729;SDS011;3908;52.310;7.230;2023-07-31T03:51:37;20.23;;;18.53;;
7729;SDS011;3908;52.310;7.230;2023-07-31T03:54:24;20.23;;;18.63;;
7729;SDS011;3908;52.310;7.230;2023-07-31T03:57:12;17.67;;;15.87;;
7729;SDS011;3908;52.310;7.230;2023-07-31T03:59:59;12.63;;;11.20;;
7729;SDS011;3908;52.310;7.230;2023-07-31T04:02:45;10.63;;;9.50;;
7729;SDS011;3908;52.310;7.230;2023-07-31T04:05:32;17.03;;;10.70;;
7729;SDS011;3908;52.310;7.230;2023-07-31T04:08:19;13.97;;;10.33;;
7729;SDS011;3908;52.310;7.230;2023-07-31T04:11:06;11.97;;;10.70;;
7729;SDS011;3908;52.310;7.230;2023-07-31T04:13:54;16.87;;;12.10;;
7729;SDS011;3908;52.310;7.230;2023-07-31T04:16:41;23.90;;;11.60;;
7729;SDS011;3908;52.310;7.230;2023-07-31T04:19:27;17.47;;;13.33;;
7729;SDS011;3908;52.310;7.230;2023-07-31T04:22:15;18.40;;;11.63;;
7729;SDS011;3908;52.310;7.230;2023-07-31T04:25:01;19.67;;;13.97;;
7729;SDS011;3908;52.310;7.230;2023-07-31T04:27:48;20.60;;;13.50;;
7729;SDS011;3908;52.310;7.230;2023-07-31T04:30:36;18.07;;;13.40;;
7729;SDS011;3908;52.310;7.230;2023-07-31T04:33:23;29.90;;;17.33;;
7729;SDS011;3908;52.310;7.230;2023-07-31T04:36:10;29.60;;;17.40;;
7729;SDS011;3908;52.310;7.230;2023-07-31T04:38:57;29.77;;;16.10;;
7729;SDS011;3908;52.310;7.230;2023-07-31T04:41:44;20.97;;;14.23;;
7729;SDS011;3908;52.310;7.230;2023-07-31T04:44:30;21.43;;;15.70;;
7729;SDS011;3908;52.310;7.230;2023-07-31T04:47:18;19.47;;;13.50;;
7729;SDS011;3908;52.310;7.230;2023-07-31T04:50:06;24.20;;;14.47;;
7729;SDS011;3908;52.310;7.230;2023-07-31T04:52:53;31.00;;;13.53;;
7729;SDS011;3908;52.310;7.230;2023-07-31T04:55:39;23.63;;;13.17;;
7729;SDS011;3908;52.310;7.230;2023-07-31T04:58:26;20.33;;;11.47;;
7729;SDS011;3908;52.310;7.230;2023-07-31T05:01:13;24.13;;;11.77;;
7729;SDS011;3908;52.310;7.230;2023-07-31T05:04:01;22.53;;;11.63;;
7729;SDS011;3908;52.310;7.230;2023-07-31T05:06:48;21.90;;;11.13;;
7729;SDS011;3908;52.310;7.230;2023-07-31T05:09:35;22.20;;;10.73;;
7729;SDS011;3908;52.310;7.230;2023-07-31T05:12:22;22.83;;;10.90;;
7729;SDS011;3908;52.310;7.230;2023-07-31T05:15:09;20.03;;;9.90;;
7729;SDS011;3908;52.310;7.230;2023-07-31T05:17:55;17.00;;;10.13;;
7729;SDS011;3908;52.310;7.230;2023-07-31T05:20:43;20.17;;;9.77;;
7729;SDS011;3908;52.310;7.230;2023-07-31T05:23:30;22.10;;;9.07;;
7729;SDS011;3908;52.310;7.230;2023-07-31T05:26:18;26.07;;;9.77;;
7729;SDS011;3908;52.310;7.230;2023-07-31T05:29:05;26.07;;;9.43;;
7729;SDS011;3908;52.310;7.230;2023-07-31T05:31:52;23.20;;;8.33;;
7729;SDS011;3908;52.310;7.230;2023-07-31T05:34:39;24.83;;;8.67;;
7729;SDS011;3908;52.310;7.230;2023-07-31T05:37:27;18.23;;;8.17;;
7729;SDS011;3908;52.310;7.230;2023-07-31T05:40:14;24.50;;;8.17;;
7729;SDS011;3908;52.310;7.230;2023-07-31T05:43:00;15.60;;;8.07;;
7729;SDS011;3908;52.310;7.230;2023-07-31T05:45:47;19.73;;;8.57;;
7729;SDS011;3908;52.310;7.230;2023-07-31T05:48:34;20.17;;;8.27;;
7729;SDS011;3908;52.310;7.230;2023-07-31T05:51:21;18.53;;;7.40;;
7729;SDS011;3908;52.310;7.230;2023-07-31T05:54:09;18.97;;;7.83;;
7729;SDS011;3908;52.310;7.230;2023-07-31T05:56:56;18.50;;;7.07;;
7729;SDS011;3908;52.310;7.230;2023-07-31T05:59:42;17.40;;;8.03;;
7729;SDS011;3908;52.310;7.230;2023-07-31T06:02:29;16.93;;;7.90;;
7729;SDS011;3908;52.310;7.230;2023-07-31T06:05:18;22.47;;;9.00;;
7729;SDS011;3908;52.310;7.230;2023-07-31T06:08:05;21.70;;;7.60;;
7729;SDS011;3908;52.310;7.230;2023-07-31T06:10:54;17.93;;;8.30;;
7729;SDS011;3908;52.310;7.230;2023-07-31T06:13:40;16.07;;;7.87;;
7729;SDS011;3908;52.310;7.230;2023-07-31T06:16:30;19.60;;;8.87;;
7729;SDS011;3908;52.310;7.230;2023-07-31T06:19:16;16.13;;;7.80;;
7729;SDS011;3908;52.310;7.230;2023-07-31T06:22:03;17.97;;;7.07;;
7729;SDS011;3908;52.310;7.230;2023-07-31T06:24:50;20.40;;;8.80;;
7729;SDS011;3908;52.310;7.230;2023-07-31T06:27:38;21.20;;;9.43;;
7729;SDS011;3908;52.310;7.230;2023-07-31T06:30:25;19.43;;;10.33;;
7729;SDS011;3908;52.310;7.230;2023-07-31T06:33:12;26.27;;;9.93;;
7729;SDS011;3908;52.310;7.230;2023-07-31T06:35:59;16.40;;;9.67;;
7729;SDS011;3908;52.310;7.230;2023-07-31T06:38:45;15.80;;;10.17;;
7729;SDS011;3908;52.310;7.230;2023-07-31T06:41:32;15.87;;;7.67;;
7729;SDS011;3908;52.310;7.230;2023-07-31T06:44:20;18.07;;;9.17;;
7729;SDS011;3908;52.310;7.230;2023-07-31T06:47:07;18.77;;;8.03;;
7729;SDS011;3908;52.310;7.230;2023-07-31T06:49:55;16.27;;;8.27;;
7729;SDS011;3908;52.310;7.230;2023-07-31T06:52:42;19.70;;;7.67;;
7729;SDS011;3908;52.310;7.230;2023-07-31T06:55:29;15.07;;;7.53;;
7729;SDS011;3908;52.310;7.230;2023-07-31T06:58:15;21.17;;;7.90;;
7729;SDS011;3908;52.310;7.230;2023-07-31T07:01:04;14.63;;;8.07;;
7729;SDS011;3908;52.310;7.230;2023-07-31T07:03:50;13.17;;;8.97;;
7729;SDS011;3908;52.310;7.230;2023-07-31T07:06:37;13.17;;;9.13;;
7729;SDS011;3908;52.310;7.230;2023-07-31T07:09:24;17.10;;;9.83;;
7729;SDS011;3908;52.310;7.230;2023-07-31T07:12:11;12.43;;;8.50;;
7729;SDS011;3908;52.310;7.230;2023-07-31T07:14:58;13.43;;;8.57;;
7729;SDS011;3908;52.310;7.230;2023-07-31T07:17:46;14.17;;;8.27;;
7729;SDS011;3908;52.310;7.230;2023-07-31T07:20:33;14.17;;;6.90;;
7729;SDS011;3908;52.310;7.230;2023-07-31T07:23:20;13.07;;;6.83;;
7729;SDS011;3908;52.310;7.230;2023-07-31T07:26:07;13.13;;;6.30;;
7729;SDS011;3908;52.310;7.230;2023-07-31T07:28:54;14.60;;;7.30;;
7729;SDS011;3908;52.310;7.230;2023-07-31T07:31:40;13.00;;;6.83;;
7729;SDS011;3908;52.310;7.230;2023-07-31T07:34:28;10.70;;;7.27;;
7729;SDS011;3908;52.310;7.230;2023-07-31T07:37:15;11.53;;;6.73;;
7729;SDS011;3908;52.310;7.230;2023-07-31T07:40:02;12.20;;;6.97;;
7729;SDS011;3908;52.310;7.230;2023-07-31T07:42:49;8.47;;;6.40;;
7729;SDS011;3908;52.310;7.230;2023-07-31T07:45:36;8.83;;;5.83;;
7729;SDS011;3908;52.310;7.230;2023-07-31T07:48:23;9.87;;;5.10;;
7729;SDS011;3908;52.310;7.230;2023-07-31T07:51:12;9.40;;;5.60;;
7729;SDS011;3908;52.310;7.230;2023-07-31T07:53:58;9.90;;;6.27;;
7729;SDS011;3908;52.310;7.230;2023-07-31T07:56:45;9.57;;;5.47;;
7729;SDS011;3908;52.310;7.230;2023-07-31T07:59:32;9.20;;;4.93;;
7729;SDS011;3908;52.310;7.230;2023-07-31T08:02:19;5.67;;;4.93;;
7729;SDS011;3908;52.310;7.230;2023-07-31T08:05:06;7.67;;;4.57;;
7729;SDS011;3908;52.310;7.230;2023-07-31T08:07:55;7.60;;;4.47;;
7729;SDS011;3908;52.310;7.230;2023-07-31T08:10:41;10.27;;;4.73;;
7729;SDS011;3908;52.310;7.230;2023-07-31T08:13:28;7.77;;;5.07;;
7729;SDS011;3908;52.310;7.230;2023-07-31T08:16:15;5.03;;;3.87;;
7729;SDS011;3908;52.310;7.230;2023-07-31T08:19:02;5.60;;;5.10;;
7729;SDS011;3908;52.310;7.230;2023-07-31T08:21:49;5.80;;;5.03;;
7729;SDS011;3908;52.310;7.230;2023-07-31T08:24:37;6.57;;;6.03;;
7729;SDS011;3908;52.310;7.230;2023-07-31T08:27:24;6.20;;;5.73;;
7729;SDS011;3908;52.310;7.230;2023-07-31T08:30:11;5.33;;;4.83;;
7729;SDS011;3908;52.310;7.230;2023-07-31T08:32:57;3.93;;;3.63;;
7729;SDS011;3908;52.310;7.230;2023-07-31T08:35:44;2.53;;;2.33;;
7729;SDS011;3908;52.310;7.230;2023-07-31T08:38:32;4.07;;;3.77;;
7729;SDS011;3908;52.310;7.230;2023-07-31T08:41:20;3.57;;;3.30;;
7729;SDS011;3908;52.310;7.230;2023-07-31T08:44:07;5.37;;;4.87;;
7729;SDS011;3908;52.310;7.230;2023-07-31T08:46:53;6.33;;;5.93;;
7729;SDS011;3908;52.310;7.230;2023-07-31T08:49:41;5.33;;;4.93;;
7729;SDS011;3908;52.310;7.230;2023-07-31T08:52:28;4.13;;;3.83;;
7729;SDS011;3908;52.310;7.230;2023-07-31T08:55:15;6.23;;;5.73;;
7729;SDS011;3908;52.310;7.230;2023-07-31T08:58:04;4.17;;;3.97;;
7729;SDS011;3908;52.310;7.230;2023-07-31T09:00:51;4.13;;;3.90;;
7729;SDS011;3908;52.310;7.230;2023-07-31T09:03:38;4.27;;;3.97;;
7729;SDS011;3908;52.310;7.230;2023-07-31T09:06:25;4.17;;;3.87;;
7729;SDS011;3908;52.310;7.230;2023-07-31T09:09:13;4.70;;;4.10;;
7729;SDS011;3908;52.310;7.230;2023-07-31T09:12:00;4.60;;;4.30;;
7729;SDS011;3908;52.310;7.230;2023-07-31T09:14:49;4.53;;;4.23;;
7729;SDS011;3908;52.310;7.230;2023-07-31T09:17:36;5.13;;;4.77;;
7729;SDS011;3908;52.310;7.230;2023-07-31T09:20:23;5.83;;;5.53;;
7729;SDS011;3908;52.310;7.230;2023-07-31T09:23:10;4.80;;;4.50;;
7729;SDS011;3908;52.310;7.230;2023-07-31T09:25:57;6.20;;;5.60;;
7729;SDS011;3908;52.310;7.230;2023-07-31T09:28:45;5.97;;;5.60;;
7729;SDS011;3908;52.310;7.230;2023-07-31T09:31:38;6.10;;;5.77;;
7729;SDS011;3908;52.310;7.230;2023-07-31T09:34:28;6.87;;;6.37;;
7729;SDS011;3908;52.310;7.230;2023-07-31T09:37:15;5.63;;;5.13;;
7729;SDS011;3908;52.310;7.230;2023-07-31T09:40:03;6.20;;;5.77;;
7729;SDS011;3908;52.310;7.230;2023-07-31T09:42:50;6.50;;;6.20;;
7729;SDS011;3908;52.310;7.230;2023-07-31T09:45:37;8.20;;;7.80;;
7729;SDS011;3908;52.310;7.230;2023-07-31T09:48:25;7.00;;;6.60;;
7729;SDS011;3908;52.310;7.230;2023-07-31T09:51:13;6.27;;;5.97;;
7729;SDS011;3908;52.310;7.230;2023-07-31T09:54:00;4.80;;;4.50;;
7729;SDS011;3908;52.310;7.230;2023-07-31T09:56:48;5.83;;;5.43;;
7729;SDS011;3908;52.310;7.230;2023-07-31T09:59:34;8.20;;;7.80;;
7729;SDS011;3908;52.310;7.230;2023-07-31T10:02:21;10.65;;;9.95;;
7729;SDS011;3908;52.310;7.230;2023-07-31T10:05:10;10.10;;;9.60;;
7729;SDS011;3908;52.310;7.230;2023-07-31T10:07:58;9.40;;;8.97;;
7729;SDS011;3908;52.310;7.230;2023-07-31T10:10:45;4.60;;;4.40;;
7729;SDS011;3908;52.310;7.230;2023-07-31T10:13:32;4.67;;;4.33;;
7729;SDS011;3908;52.310;7.230;2023-07-31T10:16:19;5.23;;;4.87;;
7729;SDS011;3908;52.310;7.230;2023-07-31T10:19:07;5.00;;;4.70;;
7729;SDS011;3908;52.310;7.230;2023-07-31T10:21:56;4.27;;;4.07;;
7729;SDS011;3908;52.310;7.230;2023-07-31T10:24:44;5.27;;;4.97;;
7729;SDS011;3908;52.310;7.230;2023-07-31T10:27:31;4.90;;;4.60;;
7729;SDS011;3908;52.310;7.230;2023-07-31T10:30:20;6.60;;;5.10;;
7729;SDS011;3908;52.310;7.230;2023-07-31T10:33:08;7.00;;;6.67;;
7729;SDS011;3908;52.310;7.230;2023-07-31T10:38:58;7.37;;;6.97;;
7729;SDS011;3908;52.310;7.230;2023-07-31T10:41:45;9.97;;;9.47;;
7729;SDS011;3908;52.310;7.230;2023-07-31T10:44:32;11.57;;;10.93;;
7729;SDS011;3908;52.310;7.230;2023-07-31T10:47:20;13.93;;;13.30;;
7729;SDS011;3908;52.310;7.230;2023-07-31T10:50:15;12.30;;;11.70;;
7729;SDS011;3908;52.310;7.230;2023-07-31T10:53:03;7.20;;;6.67;;
7729;SDS011;3908;52.310;7.230;2023-07-31T10:55:51;8.47;;;7.97;;
7729;SDS011;3908;52.310;7.230;2023-07-31T10:58:38;8.13;;;7.73;;
7729;SDS011;3908;52.310;7.230;2023-07-31T11:01:24;10.43;;;9.73;;
7729;SDS011;3908;52.310;7.230;2023-07-31T11:04:31;16.30;;;15.47;;
7729;SDS011;3908;52.310;7.230;2023-07-31T11:07:18;13.70;;;13.02;;
7729;SDS011;3908;52.310;7.230;2023-07-31T11:10:06;17.17;;;16.27;;
7729;SDS011;3908;52.310;7.230;2023-07-31T11:12:54;13.17;;;12.47;;
7729;SDS011;3908;52.310;7.230;2023-07-31T11:15:41;18.83;;;17.67;;
7729;SDS011;3908;52.310;7.230;2023-07-31T11:18:28;16.43;;;15.63;;
7729;SDS011;3908;52.310;7.230;2023-07-31T11:21:15;19.53;;;18.50;;
7729;SDS011;3908;52.310;7.230;2023-07-31T11:24:02;16.90;;;16.03;;
7729;SDS011;3908;52.310;7.230;2023-07-31T11:26:49;19.73;;;18.73;;
7729;SDS011;3908;52.310;7.230;2023-07-31T11:29:38;29.30;;;27.90;;
7729;SDS011;3908;52.310;7.230;2023-07-31T11:32:25;20.50;;;19.42;;
7729;SDS011;3908;52.310;7.230;2023-07-31T11:35:12;15.73;;;14.63;;
7729;SDS011;3908;52.310;7.230;2023-07-31T11:37:58;14.20;;;13.20;;
7729;SDS011;3908;52.310;7.230;2023-07-31T11:40:45;22.43;;;21.10;;
7729;SDS011;3908;52.310;7.230;2023-07-31T11:43:32;19.23;;;18.17;;
7729;SDS011;3908;52.310;7.230;2023-07-31T11:46:20;14.68;;;13.68;;
7729;SDS011;3908;52.310;7.230;2023-07-31T11:49:07;14.57;;;13.60;;
7729;SDS011;3908;52.310;7.230;2023-07-31T11:51:55;13.10;;;12.33;;
7729;SDS011;3908;52.310;7.230;2023-07-31T11:54:41;13.40;;;12.63;;
7729;SDS011;3908;52.310;7.230;2023-07-31T11:57:28;15.13;;;14.03;;
7729;SDS011;3908;52.310;7.230;2023-07-31T12:00:15;15.23;;;14.10;;
7729;SDS011;3908;52.310;7.230;2023-07-31T12:03:04;15.57;;;14.47;;
7729;SDS011;3908;52.310;7.230;2023-07-31T12:05:50;18.67;;;17.47;;
7729;SDS011;3908;52.310;7.230;2023-07-31T12:08:39;17.23;;;15.90;;
7729;SDS011;3908;52.310;7.230;2023-07-31T12:11:25;22.00;;;20.40;;
7729;SDS011;3908;52.310;7.230;2023-07-31T12:14:22;20.60;;;19.13;;
7729;SDS011;3908;52.310;7.230;2023-07-31T12:17:10;22.93;;;21.27;;
7729;SDS011;3908;52.310;7.230;2023-07-31T12:19:58;20.03;;;18.73;;
7729;SDS011;3908;52.310;7.230;2023-07-31T12:22:45;18.13;;;16.73;;
7729;SDS011;3908;52.310;7.230;2023-07-31T12:25:32;25.40;;;23.43;;
7729;SDS011;3908;52.310;7.230;2023-07-31T12:28:22;27.15;;;25.40;;
7729;SDS011;3908;52.310;7.230;2023-07-31T12:31:09;27.60;;;25.90;;
7729;SDS011;3908;52.310;7.230;2023-07-31T12:33:57;14.25;;;12.82;;
7729;SDS011;3908;52.310;7.230;2023-07-31T12:36:45;12.93;;;11.93;;
7729;SDS011;3908;52.310;7.230;2023-07-31T12:39:33;15.23;;;14.13;;
7729;SDS011;3908;52.310;7.230;2023-07-31T12:42:20;16.60;;;15.30;;
7729;SDS011;3908;52.310;7.230;2023-07-31T12:45:07;30.05;;;28.00;;
7729;SDS011;3908;52.310;7.230;2023-07-31T12:47:54;38.83;;;36.47;;
7729;SDS011;3908;52.310;7.230;2023-07-31T12:50:41;51.47;;;48.88;;
7729;SDS011;3908;52.310;7.230;2023-07-31T12:53:29;44.90;;;42.35;;
7729;SDS011;3908;52.310;7.230;2023-07-31T12:56:16;37.33;;;35.20;;
7729;SDS011;3908;52.310;7.230;2023-07-31T12:59:03;38.50;;;36.33;;
7729;SDS011;3908;52.310;7.230;2023-07-31T13:01:49;34.63;;;32.58;;
7729;SDS011;3908;52.310;7.230;2023-07-31T13:04:36;33.25;;;31.25;;
7729;SDS011;3908;52.310;7.230;2023-07-31T13:07:23;32.63;;;30.58;;
7729;SDS011;3908;52.310;7.230;2023-07-31T13:10:12;28.38;;;26.73;;
7729;SDS011;3908;52.310;7.230;2023-07-31T13:12:59;25.27;;;23.42;;
7729;SDS011;3908;52.310;7.230;2023-07-31T13:15:45;24.85;;;23.45;;
7729;SDS011;3908;52.310;7.230;2023-07-31T13:18:32;27.45;;;25.73;;
7729;SDS011;3908;52.310;7.230;2023-07-31T13:21:19;39.28;;;37.30;;
7729;SDS011;3908;52.310;7.230;2023-07-31T13:24:07;52.60;;;49.78;;
7729;SDS011;3908;52.310;7.230;2023-07-31T13:26:56;73.60;;;69.88;;
7729;SDS011;3908;52.310;7.230;2023-07-31T13:29:43;82.37;;;78.27;;
7729;SDS011;3908;52.310;7.230;2023-07-31T13:32:30;78.60;;;74.60;;
7729;SDS011;3908;52.310;7.230;2023-07-31T13:35:17;60.80;;;57.30;;
7729;SDS011;3908;52.310;7.230;2023-07-31T13:38:04;48.67;;;45.97;;
7729;SDS011;3908;52.310;7.230;2023-07-31T13:40:51;21.73;;;19.90;;
7729;SDS011;3908;52.310;7.230;2023-07-31T13:43:39;15.73;;;14.67;;
7729;SDS011;3908;52.310;7.230;2023-07-31T13:48:54;24.25;;;22.20;;
7729;SDS011;3908;52.310;7.230;2023-07-31T13:51:41;30.25;;;28.35;;
7729;SDS011;3908;52.310;7.230;2023-07-31T13:54:27;19.52;;;18.40;;
7729;SDS011;3908;52.310;7.230;2023-07-31T13:57:14;20.50;;;19.30;;
7729;SDS011;3908;52.310;7.230;2023-07-31T14:00:03;29.17;;;27.52;;
7729;SDS011;3908;52.310;7.230;2023-07-31T14:02:50;30.00;;;28.17;;
7729;SDS011;3908;52.310;7.230;2023-07-31T14:05:37;28.27;;;26.73;;
7729;SDS011;3908;52.310;7.230;2023-07-31T14:08:23;42.50;;;40.22;;
7729;SDS011;3908;52.310;7.230;2023-07-31T14:11:10;83.57;;;79.30;;
7729;SDS011;3908;52.310;7.230;2023-07-31T14:13:57;104.70;;;99.43;;
7729;SDS011;3908;52.310;7.230;2023-07-31T14:16:45;94.35;;;89.63;;
7729;SDS011;3908;52.310;7.230;2023-07-31T14:19:32;89.25;;;84.85;;
7729;SDS011;3908;52.310;7.230;2023-07-31T14:22:26;72.63;;;68.97;;
7729;SDS011;3908;52.310;7.230;2023-07-31T14:25:13;70.00;;;66.40;;
7729;SDS011;3908;52.310;7.230;2023-07-31T14:28:00;46.78;;;44.15;;
7729;SDS011;3908;52.310;7.230;2023-07-31T14:30:47;30.33;;;28.42;;
7729;SDS011;3908;52.310;7.230;2023-07-31T14:33:35;28.80;;;27.00;;
7729;SDS011;3908;52.310;7.230;2023-07-31T14:36:22;29.83;;;27.95;;
7729;SDS011;3908;52.310;7.230;2023-07-31T14:39:09;32.63;;;29.92;;
7729;SDS011;3908;52.310;7.230;2023-07-31T14:41:55;31.52;;;29.65;;
7729;SDS011;3908;52.310;7.230;2023-07-31T14:44:42;30.20;;;28.45;;
7729;SDS011;3908;52.310;7.230;2023-07-31T14:47:29;37.83;;;35.58;;
7729;SDS011;3908;52.310;7.230;2023-07-31T14:50:19;32.08;;;30.10;;
7729;SDS011;3908;52.310;7.230;2023-07-31T14:53:06;36.90;;;34.63;;
7729;SDS011;3908;52.310;7.230;2023-07-31T14:55:53;38.25;;;36.08;;
7729;SDS011;3908;52.310;7.230;2023-07-31T14:58:40;43.53;;;41.40;;
7729;SDS011;3908;52.310;7.230;2023-07-31T15:01:26;49.05;;;46.58;;
7729;SDS011;3908;52.310;7.230;2023-07-31T15:04:13;58.00;;;54.80;;
7729;SDS011;3908;52.310;7.230;2023-07-31T15:07:01;64.72;;;61.67;;
7729;SDS011;3908;52.310;7.230;2023-07-31T15:09:48;91.88;;;87.68;;
7729;SDS011;3908;52.310;7.230;2023-07-31T15:12:35;82.35;;;78.68;;
7729;SDS011;3908;52.310;7.230;2023-07-31T15:15:23;76.70;;;73.05;;
7729;SDS011;3908;52.310;7.230;2023-07-31T15:18:10;77.60;;;73.85;;
7729;SDS011;3908;52.310;7.230;2023-07-31T15:20:57;65.18;;;61.90;;
7729;SDS011;3908;52.310;7.230;2023-07-31T15:23:45;43.53;;;41.17;;
7729;SDS011;3908;52.310;7.230;2023-07-31T15:26:32;50.90;;;48.22;;
7729;SDS011;3908;52.310;7.230;2023-07-31T15:29:18;32.37;;;30.43;;
7729;SDS011;3908;52.310;7.230;2023-07-31T15:32:05;46.85;;;44.35;;
7729;SDS011;3908;52.310;7.230;2023-07-31T15:34:52;53.03;;;50.03;;
7729;SDS011;3908;52.310;7.230;2023-07-31T15:37:39;58.03;;;54.83;;
7729;SDS011;3908;52.310;7.230;2023-07-31T15:40:27;61.67;;;58.50;;
7729;SDS011;3908;52.310;7.230;2023-07-31T15:43:14;47.78;;;45.20;;
7729;SDS011;3908;52.310;7.230;2023-07-31T15:46:01;42.55;;;39.78;;
7729;SDS011;3908;52.310;7.230;2023-07-31T15:48:48;28.37;;;26.53;;
7729;SDS011;3908;52.310;7.230;2023-07-31T15:51:34;26.53;;;24.90;;
7729;SDS011;3908;52.310;7.230;2023-07-31T15:54:21;23.40;;;21.73;;
7729;SDS011;3908;52.310;7.230;2023-07-31T15:57:10;18.90;;;17.60;;
7729;SDS011;3908;52.310;7.230;2023-07-31T15:59:57;18.17;;;17.07;;
7729;SDS011;3908;52.310;7.230;2023-07-31T16:02:43;21.13;;;19.67;;
7729;SDS011;3908;52.310;7.230;2023-07-31T16:05:30;23.00;;;21.42;;
7729;SDS011;3908;52.310;7.230;2023-07-31T16:08:17;22.87;;;21.37;;
7729;SDS011;3908;52.310;7.230;2023-07-31T16:11:04;22.23;;;20.73;;
7729;SDS011;3908;52.310;7.230;2023-07-31T16:13:52;23.97;;;22.27;;
7729;SDS011;3908;52.310;7.230;2023-07-31T16:16:38;19.10;;;17.80;;
7729;SDS011;3908;52.310;7.230;2023-07-31T16:19:25;15.90;;;14.43;;
7729;SDS011;3908;52.310;7.230;2023-07-31T16:22:12;12.50;;;11.17;;
7729;SDS011;3908;52.310;7.230;2023-07-31T16:24:59;13.53;;;12.40;;
7729;SDS011;3908;52.310;7.230;2023-07-31T16:27:46;11.57;;;10.60;;
7729;SDS011;3908;52.310;7.230;2023-07-31T16:30:34;16.05;;;14.85;;
7729;SDS011;3908;52.310;7.230;2023-07-31T16:33:21;14.63;;;13.53;;
7729;SDS011;3908;52.310;7.230;2023-07-31T16:36:08;17.93;;;16.40;;
7729;SDS011;3908;52.310;7.230;2023-07-31T16:38:55;18.80;;;17.00;;
7729;SDS011;3908;52.310;7.230;2023-07-31T16:41:42;15.07;;;13.87;;
7729;SDS011;3908;52.310;7.230;2023-07-31T16:44:29;10.90;;;10.10;;
7729;SDS011;3908;52.310;7.230;2023-07-31T16:47:17;12.83;;;11.67;;
7729;SDS011;3908;52.310;7.230;2023-07-31T16:50:04;10.97;;;9.97;;
7729;SDS011;3908;52.310;7.230;2023-07-31T16:52:51;13.83;;;12.60;;
7729;SDS011;3908;52.310;7.230;2023-07-31T16:55:38;13.13;;;12.07;;
7729;SDS011;3908;52.310;7.230;2023-07-31T16:58:25;13.07;;;12.17;;
7729;SDS011;3908;52.310;7.230;2023-07-31T17:01:12;13.60;;;12.63;;
7729;SDS011;3908;52.310;7.230;2023-07-31T17:04:00;16.37;;;15.00;;
7729;SDS011;3908;52.310;7.230;2023-07-31T17:06:47;21.67;;;20.40;;